createdAt,value
2022-08-05T00:04:14.218Z,33.65
2022-08-05T00:08:34.364Z,33.73
2022-08-05T00:12:55.922Z,33.89
2022-08-05T00:17:28.616Z,33.58
2022-08-05T00:21:44.666Z,33.63
2022-08-05T00:26:00.901Z,33.64
2022-08-05T00:30:17.785Z,33.74
2022-08-05T00:34:54.016Z,33.45
2022-08-05T00:39:13.993Z,33.46
2022-08-05T00:43:46.854Z,33.36
2022-08-05T00:48:06.265Z,33.42
2022-08-05T00:52:28.534Z,34.07
2022-08-05T00:56:51.538Z,33.95
2022-08-05T01:01:08.900Z,33.76
2022-08-05T01:05:27.384Z,33.73
2022-08-05T01:09:43.681Z,33.85
2022-08-05T01:14:34.786Z,34.04
2022-08-05T01:18:56.612Z,34.04
2022-08-05T01:23:34.864Z,34.15
2022-08-05T01:28:10.349Z,34.53
2022-08-05T01:32:27.922Z,34.68
2022-08-05T01:36:47.669Z,34.80
2022-08-05T01:41:04.760Z,34.36
2022-08-05T01:45:23.658Z,34.43
2022-08-05T01:50:00.272Z,34.44
2022-08-05T01:54:19.665Z,34.72
2022-08-05T01:58:45.111Z,34.48
2022-08-05T02:03:06.933Z,34.63
2022-08-05T02:07:47.230Z,34.65
2022-08-05T02:12:19.238Z,34.76
2022-08-05T02:16:52.248Z,34.87
2022-08-05T02:21:21.911Z,35.06
2022-08-05T02:25:49.045Z,38.30
2022-08-05T02:30:10.667Z,40.88
2022-08-05T02:34:30.159Z,43.45
2022-08-05T02:38:53.237Z,43.99
2022-08-05T02:43:14.105Z,43.16
2022-08-05T02:48:06.594Z,43.32
2022-08-05T02:52:29.953Z,43.51
2022-08-05T02:56:47.278Z,42.65
2022-08-05T03:01:04.647Z,43.06
2022-08-05T03:05:21.669Z,44.65
2022-08-05T03:09:57.577Z,44.28
2022-08-05T03:14:13.872Z,45.56
2022-08-05T03:18:30.858Z,46.02
2022-08-05T03:22:50.109Z,46.33
2022-08-05T03:27:06.843Z,46.70
2022-08-05T03:31:55.890Z,47.07
2022-08-05T03:35:59.912Z,46.80
2022-08-05T03:40:24.146Z,46.05
2022-08-05T03:44:40.747Z,47.30
2022-08-05T03:48:56.824Z,47.78
2022-08-05T03:55:53.788Z,48.16
2022-08-05T03:57:58.347Z,46.04
2022-08-05T04:02:17.390Z,48.58
2022-08-05T04:06:37.539Z,47.67
2022-08-05T04:10:53.631Z,45.64
2022-08-05T04:15:15.527Z,42.41
2022-08-05T04:19:42.075Z,41.23
2022-08-05T04:24:06.438Z,40.18
2022-08-05T04:28:28.494Z,39.58
2022-08-05T04:32:47.887Z,38.59
2022-08-05T04:37:04.495Z,38.20
2022-08-05T04:41:21.071Z,38.00
2022-08-05T04:45:55.042Z,37.50
2022-08-05T04:50:11.869Z,37.18
2022-08-05T04:54:27.967Z,37.21
2022-08-05T04:58:44.329Z,37.24
2022-08-05T05:03:03.662Z,37.29
2022-08-05T05:07:23.765Z,37.23
2022-08-05T05:11:41.521Z,36.65
2022-08-05T05:16:06.951Z,36.57
2022-08-05T05:20:23.247Z,36.56
2022-08-05T05:24:57.012Z,36.13
2022-08-05T05:29:15.302Z,36.11
2022-08-05T05:33:31.453Z,36.34
2022-08-05T05:38:09.260Z,35.94
2022-08-05T05:42:29.033Z,35.30
2022-08-05T05:46:45.091Z,34.97
2022-08-05T05:51:15.181Z,34.84
2022-08-05T05:55:51.690Z,34.51
2022-08-05T06:00:11.636Z,34.60
2022-08-05T06:04:27.739Z,34.34
2022-08-05T06:08:44.536Z,33.81
2022-08-05T06:13:05.468Z,33.34
2022-08-05T06:17:24.635Z,32.51
2022-08-05T06:21:49.415Z,32.12
2022-08-05T06:26:12.553Z,32.50
2022-08-05T06:30:30.104Z,31.98
2022-08-05T06:34:47.064Z,31.67
2022-08-05T06:39:03.251Z,30.99
2022-08-05T06:43:57.867Z,31.17
2022-08-05T06:48:36.309Z,30.86
2022-08-05T06:52:36.784Z,30.28
2022-08-05T06:57:13.935Z,30.19
2022-08-05T07:01:32.279Z,29.84
2022-08-05T07:05:48.601Z,29.06
2022-08-05T07:10:07.106Z,29.01
2022-08-05T07:14:42.378Z,28.76
2022-08-05T07:19:00.342Z,28.94
2022-08-05T07:23:26.284Z,29.16
2022-08-05T07:27:58.422Z,29.33
2022-08-05T07:32:18.627Z,30.12
2022-08-05T07:36:42.638Z,30.03
2022-08-05T07:41:00.356Z,29.16
2022-08-05T07:45:31.162Z,29.69
2022-08-05T07:49:57.056Z,28.99
2022-08-05T07:54:15.142Z,28.60
2022-08-05T07:58:57.593Z,29.38
2022-08-05T08:03:15.935Z,29.15
2022-08-05T08:07:39.609Z,27.86
2022-08-05T08:12:20.246Z,27.20
2022-08-05T08:16:50.938Z,26.70
2022-08-05T08:21:09.544Z,27.05
2022-08-05T08:25:59.097Z,25.75
2022-08-05T08:30:29.727Z,25.51
2022-08-05T08:34:47.661Z,25.05
2022-08-05T08:39:03.809Z,24.95
2022-08-05T08:45:19.143Z,25.08
2022-08-05T08:48:12.725Z,24.11
2022-08-05T08:52:35.861Z,23.68
2022-08-05T08:56:54.268Z,23.80
2022-08-05T09:01:16.018Z,23.39
2022-08-05T09:05:38.837Z,23.15
2022-08-05T09:10:08.944Z,22.85
2022-08-05T09:14:56.990Z,22.14
2022-08-05T09:19:01.591Z,23.20
2022-08-05T09:23:22.886Z,22.73
2022-08-05T09:28:04.774Z,22.57
2022-08-05T09:32:50.233Z,21.56
2022-08-05T09:36:59.795Z,22.00
2022-08-05T09:41:16.299Z,21.23
2022-08-05T09:46:07.277Z,20.57
2022-08-05T09:50:13.522Z,19.91
2022-08-05T09:54:35.630Z,19.84
2022-08-05T09:59:04.194Z,19.48
2022-08-05T10:03:20.837Z,18.69
2022-08-05T10:08:36.586Z,19.18
2022-08-05T10:12:33.351Z,18.45
2022-08-05T10:17:00.023Z,18.78
2022-08-05T10:21:16.602Z,17.63
2022-08-05T10:25:34.743Z,16.14
2022-08-05T10:30:40.842Z,17.11
2022-08-05T10:34:31.005Z,15.77
2022-08-05T10:38:48.517Z,16.85
2022-08-05T10:43:35.922Z,16.78
2022-08-05T10:48:29.904Z,16.01
2022-08-05T10:53:01.113Z,15.40
2022-08-05T10:57:31.815Z,15.40
2022-08-05T11:01:55.233Z,14.84
2022-08-05T11:06:21.354Z,14.55
2022-08-05T11:10:49.961Z,14.40
2022-08-05T11:15:20.252Z,14.38
2022-08-05T11:20:16.760Z,14.76
2022-08-05T11:24:30.554Z,14.54
2022-08-05T11:28:54.981Z,13.93
2022-08-05T11:33:48.176Z,14.05
2022-08-05T11:38:28.001Z,14.13
2022-08-05T11:42:41.985Z,13.19
2022-08-05T11:47:10.892Z,13.57
2022-08-05T11:51:44.224Z,12.20
2022-08-05T11:56:05.708Z,12.89
2022-08-05T12:00:31.303Z,12.44
2022-08-05T12:04:59.712Z,12.27
2022-08-05T12:09:19.811Z,13.43
2022-08-05T12:13:49.057Z,13.06
2022-08-05T12:18:10.566Z,13.16
2022-08-05T12:22:29.936Z,13.48
2022-08-05T12:26:53.658Z,12.36
2022-08-05T12:31:10.137Z,12.14
2022-08-05T12:35:37.028Z,11.91
2022-08-05T12:40:03.499Z,11.97
2022-08-05T12:44:33.469Z,11.44
2022-08-05T12:48:57.377Z,10.97
2022-08-05T12:53:17.177Z,11.62
2022-08-05T12:58:39.101Z,11.34
2022-08-05T13:02:16.417Z,11.88
2022-08-05T13:06:33.567Z,12.13
2022-08-05T13:10:50.309Z,11.64
2022-08-05T13:15:16.300Z,11.31
2022-08-05T13:19:52.396Z,11.40
2022-08-05T13:24:09.171Z,11.46
2022-08-05T13:28:25.145Z,11.82
2022-08-05T13:32:42.268Z,11.07
2022-08-05T13:37:07.334Z,11.06
2022-08-05T13:41:25.794Z,10.99
2022-08-05T13:45:51.892Z,10.73
2022-08-05T13:50:11.311Z,10.95
2022-08-05T13:54:31.254Z,10.29
2022-08-05T13:58:52.843Z,10.42
2022-08-05T14:03:09.520Z,10.39
2022-08-05T14:08:00.228Z,10.88
2022-08-05T14:12:17.490Z,10.40
2022-08-05T14:16:34.794Z,10.86
2022-08-05T14:20:54.808Z,10.58
2022-08-05T14:25:19.165Z,10.77
2022-08-05T14:29:37.933Z,10.62
2022-08-05T14:33:59.542Z,9.75
2022-08-05T14:38:32.911Z,10.00
2022-08-05T14:42:52.332Z,10.13
2022-08-05T14:47:08.823Z,10.36
2022-08-05T14:51:26.477Z,10.35
2022-08-05T14:55:52.079Z,10.36
2022-08-05T15:00:09.286Z,10.59
2022-08-05T15:04:27.381Z,10.32
2022-08-05T15:08:58.667Z,11.26
2022-08-05T15:13:19.355Z,11.10
2022-08-05T15:17:48.614Z,10.02
2022-08-05T15:22:09.167Z,11.18
2022-08-05T15:26:32.182Z,10.61
2022-08-05T15:30:52.956Z,10.67
2022-08-05T15:35:10.723Z,10.84
2022-08-05T15:40:58.968Z,10.91
2022-08-05T15:44:04.761Z,11.18
2022-08-05T15:48:21.203Z,11.64
2022-08-05T15:52:53.089Z,11.00
2022-08-05T15:57:11.242Z,11.25
2022-08-05T16:01:39.401Z,11.59
2022-08-05T16:05:56.183Z,10.71
2022-08-05T16:10:12.131Z,11.60
2022-08-05T16:14:28.197Z,11.11
2022-08-05T16:18:52.758Z,12.38
2022-08-05T16:23:09.355Z,12.18
2022-08-05T16:27:47.164Z,12.26
2022-08-05T16:32:02.944Z,12.92
2022-08-05T16:36:23.805Z,12.29
2022-08-05T16:40:40.186Z,12.41
2022-08-05T16:44:57.055Z,12.46
2022-08-05T16:49:13.534Z,12.96
2022-08-05T16:53:32.043Z,13.38
2022-08-05T16:57:59.915Z,13.81
2022-08-05T17:02:17.115Z,13.40
2022-08-05T17:06:34.044Z,13.61
2022-08-05T17:10:50.301Z,13.99
2022-08-05T17:15:07.636Z,14.63
2022-08-05T17:19:25.259Z,14.61
2022-08-05T17:24:05.963Z,14.77
2022-08-05T17:28:17.312Z,15.96
2022-08-05T17:32:34.585Z,16.73
2022-08-05T17:36:51.292Z,16.99
2022-08-05T17:41:22.954Z,16.96
2022-08-05T17:45:44.554Z,17.57
2022-08-05T17:50:10.174Z,17.93
2022-08-05T17:54:26.991Z,18.11
2022-08-05T17:58:43.212Z,18.09
2022-08-05T18:03:00.563Z,18.16
2022-08-05T18:07:16.601Z,18.53
2022-08-05T18:11:33.893Z,18.78
2022-08-05T18:15:51.353Z,19.41
2022-08-05T18:20:07.939Z,19.96
2022-08-05T18:24:30.244Z,20.57
2022-08-05T18:28:46.586Z,21.08
2022-08-05T18:33:05.302Z,21.93
2022-08-05T18:37:34.399Z,21.52
2022-08-05T18:42:03.751Z,21.76
2022-08-05T18:46:26.056Z,22.91
2022-08-05T18:52:06.506Z,23.82
2022-08-05T18:55:39.910Z,23.68
2022-08-05T19:00:02.155Z,24.55
2022-08-05T19:04:23.983Z,24.48
2022-08-05T19:08:40.406Z,24.82
2022-08-05T19:12:59.609Z,25.80
2022-08-05T19:17:19.126Z,26.51
2022-08-05T19:21:36.122Z,26.60
2022-08-05T19:25:52.700Z,26.12
2022-08-05T19:30:21.001Z,26.43
2022-08-05T19:34:42.063Z,25.65
2022-08-05T19:39:11.563Z,26.70
2022-08-05T19:44:04.546Z,27.37
2022-08-05T19:48:14.599Z,27.45
2022-08-05T19:52:32.878Z,27.64
2022-08-05T19:56:49.481Z,27.99
2022-08-05T20:01:05.938Z,28.12
2022-08-05T20:05:24.864Z,28.23
2022-08-05T20:09:53.558Z,28.72
2022-08-05T20:14:16.559Z,29.09
2022-08-05T20:18:36.528Z,29.18
2022-08-05T20:22:52.755Z,29.63
2022-08-05T20:27:11.358Z,30.05
2022-08-05T20:31:43.074Z,30.39
2022-08-05T20:36:04.931Z,29.74
2022-08-05T20:40:20.939Z,30.25
2022-08-05T20:44:37.934Z,30.28
2022-08-05T20:48:54.771Z,30.71
2022-08-05T20:53:15.918Z,31.21
2022-08-05T20:57:46.921Z,31.79
2022-08-05T21:02:05.148Z,32.41
2022-08-05T21:06:27.753Z,32.42
2022-08-05T21:10:48.886Z,32.79
2022-08-05T21:15:05.562Z,33.15
2022-08-05T21:19:23.503Z,33.42
2022-08-05T21:23:39.595Z,34.25
2022-08-05T21:27:55.527Z,33.89
2022-08-05T21:32:11.717Z,33.79
2022-08-05T21:36:33.249Z,34.37
2022-08-05T21:40:49.317Z,34.30
2022-08-05T21:45:05.788Z,34.48
2022-08-05T21:49:58.637Z,34.95
2022-08-05T21:54:04.038Z,35.55
2022-08-05T21:58:28.794Z,34.65
2022-08-05T22:02:48.450Z,34.62
2022-08-05T22:07:04.404Z,34.61
2022-08-05T22:11:35.445Z,34.82
2022-08-05T22:16:01.499Z,35.36
2022-08-05T22:20:25.381Z,35.79
2022-08-05T22:25:00.598Z,36.47
2022-08-05T22:29:17.493Z,36.72
2022-08-05T22:33:57.196Z,36.27
2022-08-05T22:38:11.269Z,36.67
2022-08-05T22:42:27.856Z,36.43
2022-08-05T22:46:45.158Z,35.94
2022-08-05T22:51:01.282Z,36.06
2022-08-05T22:55:24.048Z,35.76
2022-08-05T22:59:47.392Z,36.44
2022-08-05T23:04:06.595Z,36.25
2022-08-05T23:08:23.552Z,37.07
2022-08-05T23:12:43.821Z,37.30
2022-08-05T23:17:24.170Z,36.72
2022-08-05T23:21:48.965Z,36.59
2022-08-05T23:26:05.099Z,37.49
2022-08-05T23:30:21.114Z,37.67
2022-08-05T23:34:43.189Z,37.64
2022-08-05T23:38:59.499Z,38.22
2022-08-05T23:43:24.773Z,39.00
2022-08-05T23:47:53.565Z,40.53
2022-08-05T23:52:28.443Z,40.11
2022-08-05T23:56:44.585Z,41.06
